sensor_id;sensor_type;location;lat;lon;timestamp;temperature;humidity
53748;DHT22;39655;53.210;5.768;2023-05-07T01:44:22;13.50;91.80
53748;DHT22;39655;53.210;5.768;2023-05-07T06:25:37;12.60;92.50
53748;DHT22;39655;53.210;5.768;2023-05-07T06:28:02;12.60;92.40
53748;DHT22;39655;53.210;5.768;2023-05-07T06:30:28;12.70;92.30
53748;DHT22;39655;53.210;5.768;2023-05-07T06:32:54;12.70;92.10
53748;DHT22;39655;53.210;5.768;2023-05-07T06:35:21;12.80;92.00
53748;DHT22;39655;53.210;5.768;2023-05-07T06:37:47;12.90;91.80
53748;DHT22;39655;53.210;5.768;2023-05-07T06:40:13;12.90;91.50
53748;DHT22;39655;53.210;5.768;2023-05-07T06:42:38;13.00;91.40
53748;DHT22;39655;53.210;5.768;2023-05-07T06:45:04;13.00;91.30
53748;DHT22;39655;53.210;5.768;2023-05-07T06:47:30;13.10;91.10
53748;DHT22;39655;53.210;5.768;2023-05-07T06:49:56;13.10;90.80
53748;DHT22;39655;53.210;5.768;2023-05-07T06:52:22;13.30;90.70
53748;DHT22;39655;53.210;5.768;2023-05-07T06:54:47;13.30;90.50
53748;DHT22;39655;53.210;5.768;2023-05-07T06:57:13;13.50;90.30
53748;DHT22;39655;53.210;5.768;2023-05-07T06:59:39;13.50;89.90
53748;DHT22;39655;53.210;5.768;2023-05-07T07:02:04;13.50;89.40
53748;DHT22;39655;53.210;5.768;2023-05-07T07:04:30;13.40;89.30
53748;DHT22;39655;53.210;5.768;2023-05-07T07:06:56;13.50;89.40
53748;DHT22;39655;53.210;5.768;2023-05-07T07:09:22;13.60;89.50
53748;DHT22;39655;53.210;5.768;2023-05-07T07:11:48;13.60;89.50
53748;DHT22;39655;53.210;5.768;2023-05-07T07:14:13;13.60;89.30
53748;DHT22;39655;53.210;5.768;2023-05-07T07:16:39;13.60;89.20
53748;DHT22;39655;53.210;5.768;2023-05-07T07:19:06;13.60;89.10
53748;DHT22;39655;53.210;5.768;2023-05-07T07:21:31;13.70;89.30
53748;DHT22;39655;53.210;5.768;2023-05-07T07:23:57;13.70;89.00
53748;DHT22;39655;53.210;5.768;2023-05-07T07:26:23;13.70;88.80
53748;DHT22;39655;53.210;5.768;2023-05-07T07:28:48;13.80;88.70
53748;DHT22;39655;53.210;5.768;2023-05-07T07:31:17;13.90;88.80
53748;DHT22;39655;53.210;5.768;2023-05-07T07:33:43;14.00;88.60
53748;DHT22;39655;53.210;5.768;2023-05-07T07:36:09;14.10;88.40
53748;DHT22;39655;53.210;5.768;2023-05-07T07:38:34;14.10;87.90
53748;DHT22;39655;53.210;5.768;2023-05-07T07:41:01;14.20;87.50
53748;DHT22;39655;53.210;5.768;2023-05-07T07:43:27;14.20;87.70
53748;DHT22;39655;53.210;5.768;2023-05-07T07:45:53;14.30;87.60
53748;DHT22;39655;53.210;5.768;2023-05-07T07:48:18;14.30;87.30
53748;DHT22;39655;53.210;5.768;2023-05-07T07:50:44;14.40;87.30
53748;DHT22;39655;53.210;5.768;2023-05-07T07:53:10;14.50;86.60
53748;DHT22;39655;53.210;5.768;2023-05-07T07:55:39;14.60;86.30
53748;DHT22;39655;53.210;5.768;2023-05-07T07:58:05;14.60;85.60
53748;DHT22;39655;53.210;5.768;2023-05-07T08:00:31;15.10;85.10
53748;DHT22;39655;53.210;5.768;2023-05-07T08:02:56;15.10;84.70
53748;DHT22;39655;53.210;5.768;2023-05-07T08:05:22;15.00;85.20
53748;DHT22;39655;53.210;5.768;2023-05-07T08:07:51;15.00;85.20
53748;DHT22;39655;53.210;5.768;2023-05-07T08:10:24;15.10;85.30
53748;DHT22;39655;53.210;5.768;2023-05-07T08:12:50;15.00;84.90
53748;DHT22;39655;53.210;5.768;2023-05-07T08:15:18;15.10;85.20
53748;DHT22;39655;53.210;5.768;2023-05-07T08:17:44;15.10;84.40
53748;DHT22;39655;53.210;5.768;2023-05-07T08:20:10;15.20;84.50
53748;DHT22;39655;53.210;5.768;2023-05-07T08:22:36;15.40;84.30
53748;DHT22;39655;53.210;5.768;2023-05-07T08:25:02;15.80;83.10
53748;DHT22;39655;53.210;5.768;2023-05-07T08:27:28;15.80;82.50
53748;DHT22;39655;53.210;5.768;2023-05-07T08:29:54;15.70;82.80
53748;DHT22;39655;53.210;5.768;2023-05-07T08:32:20;15.60;82.40
53748;DHT22;39655;53.210;5.768;2023-05-07T08:34:47;15.60;82.80
53748;DHT22;39655;53.210;5.768;2023-05-07T08:37:12;15.60;83.10
53748;DHT22;39655;53.210;5.768;2023-05-07T08:39:38;15.70;82.80
53748;DHT22;39655;53.210;5.768;2023-05-07T08:42:04;15.60;82.80
53748;DHT22;39655;53.210;5.768;2023-05-07T08:44:33;15.60;83.30
53748;DHT22;39655;53.210;5.768;2023-05-07T08:47:01;15.60;83.50
53748;DHT22;39655;53.210;5.768;2023-05-07T08:49:28;15.60;82.80
53748;DHT22;39655;53.210;5.768;2023-05-07T08:51:54;15.60;83.20
53748;DHT22;39655;53.210;5.768;2023-05-07T08:54:20;15.70;83.40
53748;DHT22;39655;53.210;5.768;2023-05-07T08:56:46;15.80;83.20
53748;DHT22;39655;53.210;5.768;2023-05-07T08:59:14;15.90;82.80
53748;DHT22;39655;53.210;5.768;2023-05-07T09:01:40;15.90;82.80
53748;DHT22;39655;53.210;5.768;2023-05-07T09:04:06;16.00;83.20
53748;DHT22;39655;53.210;5.768;2023-05-07T09:06:33;16.10;82.30
53748;DHT22;39655;53.210;5.768;2023-05-07T09:08:59;16.10;82.50
53748;DHT22;39655;53.210;5.768;2023-05-07T09:11:27;16.10;82.00
53748;DHT22;39655;53.210;5.768;2023-05-07T09:13:56;16.20;82.00
53748;DHT22;39655;53.210;5.768;2023-05-07T09:16:25;16.30;82.10
53748;DHT22;39655;53.210;5.768;2023-05-07T09:18:58;16.30;81.40
53748;DHT22;39655;53.210;5.768;2023-05-07T09:21:29;16.50;82.20
53748;DHT22;39655;53.210;5.768;2023-05-07T09:24:21;16.90;82.40
53748;DHT22;39655;53.210;5.768;2023-05-07T09:30:13;17.40;79.50
53748;DHT22;39655;53.210;5.768;2023-05-07T09:32:39;17.70;78.90
53748;DHT22;39655;53.210;5.768;2023-05-07T09:35:05;17.70;78.70
53748;DHT22;39655;53.210;5.768;2023-05-07T09:37:31;17.60;77.40
53748;DHT22;39655;53.210;5.768;2023-05-07T09:40:05;17.60;77.60
53748;DHT22;39655;53.210;5.768;2023-05-07T09:42:41;17.50;77.20
53748;DHT22;39655;53.210;5.768;2023-05-07T09:45:07;17.50;77.70
53748;DHT22;39655;53.210;5.768;2023-05-07T09:47:35;17.30;77.10
53748;DHT22;39655;53.210;5.768;2023-05-07T09:50:05;17.10;78.10
53748;DHT22;39655;53.210;5.768;2023-05-07T09:52:34;17.10;78.50
53748;DHT22;39655;53.210;5.768;2023-05-07T09:55:02;17.20;79.40
53748;DHT22;39655;53.210;5.768;2023-05-07T09:57:50;17.40;78.10
53748;DHT22;39655;53.210;5.768;2023-05-07T10:00:18;17.40;77.90
53748;DHT22;39655;53.210;5.768;2023-05-07T10:02:51;17.40;78.20
53748;DHT22;39655;53.210;5.768;2023-05-07T10:05:21;17.50;77.60
53748;DHT22;39655;53.210;5.768;2023-05-07T10:07:50;17.60;77.80
53748;DHT22;39655;53.210;5.768;2023-05-07T10:10:17;17.70;77.40
53748;DHT22;39655;53.210;5.768;2023-05-07T10:12:43;17.80;77.50
53748;DHT22;39655;53.210;5.768;2023-05-07T10:15:10;18.00;77.20
53748;DHT22;39655;53.210;5.768;2023-05-07T10:17:39;18.10;76.50
53748;DHT22;39655;53.210;5.768;2023-05-07T10:20:09;18.20;76.50
53748;DHT22;39655;53.210;5.768;2023-05-07T10:22:44;18.20;75.80
53748;DHT22;39655;53.210;5.768;2023-05-07T10:25:22;18.10;75.50
53748;DHT22;39655;53.210;5.768;2023-05-07T10:27:52;18.10;75.60
53748;DHT22;39655;53.210;5.768;2023-05-07T10:32:59;18.20;75.80
53748;DHT22;39655;53.210;5.768;2023-05-07T10:35:40;18.20;75.70
53748;DHT22;39655;53.210;5.768;2023-05-07T10:38:07;18.40;75.80
53748;DHT22;39655;53.210;5.768;2023-05-07T10:40:33;18.50;75.50
53748;DHT22;39655;53.210;5.768;2023-05-07T10:43:04;18.70;75.40
53748;DHT22;39655;53.210;5.768;2023-05-07T10:45:32;18.80;75.00
53748;DHT22;39655;53.210;5.768;2023-05-07T10:50:43;18.70;73.70
53748;DHT22;39655;53.210;5.768;2023-05-07T10:55:48;19.00;74.80
53748;DHT22;39655;53.210;5.768;2023-05-07T10:58:27;19.00;73.70
53748;DHT22;39655;53.210;5.768;2023-05-07T11:00:58;19.10;74.10
53748;DHT22;39655;53.210;5.768;2023-05-07T11:03:25;19.10;74.90
53748;DHT22;39655;53.210;5.768;2023-05-07T11:06:10;19.20;74.20
53748;DHT22;39655;53.210;5.768;2023-05-07T11:08:58;19.30;73.60
53748;DHT22;39655;53.210;5.768;2023-05-07T11:11:50;19.30;72.30
53748;DHT22;39655;53.210;5.768;2023-05-07T11:17:09;19.50;73.20
53748;DHT22;39655;53.210;5.768;2023-05-07T11:19:54;19.60;72.20
53748;DHT22;39655;53.210;5.768;2023-05-07T11:25:00;19.80;72.80
53748;DHT22;39655;53.210;5.768;2023-05-07T11:27:26;19.80;71.70
53748;DHT22;39655;53.210;5.768;2023-05-07T11:29:52;19.80;72.00
53748;DHT22;39655;53.210;5.768;2023-05-07T11:32:26;19.80;72.20
53748;DHT22;39655;53.210;5.768;2023-05-07T11:34:56;19.80;72.40
53748;DHT22;39655;53.210;5.768;2023-05-07T11:37:23;19.90;71.90
53748;DHT22;39655;53.210;5.768;2023-05-07T11:39:49;20.10;71.70
53748;DHT22;39655;53.210;5.768;2023-05-07T11:44:53;20.80;70.10
53748;DHT22;39655;53.210;5.768;2023-05-07T11:47:19;21.30;68.00
53748;DHT22;39655;53.210;5.768;2023-05-07T11:49:50;21.60;66.20
53748;DHT22;39655;53.210;5.768;2023-05-07T11:52:17;21.80;65.20
53748;DHT22;39655;53.210;5.768;2023-05-07T11:54:52;22.10;65.30
53748;DHT22;39655;53.210;5.768;2023-05-07T11:57:18;22.60;64.90
53748;DHT22;39655;53.210;5.768;2023-05-07T11:59:44;22.90;62.80
53748;DHT22;39655;53.210;5.768;2023-05-07T12:02:16;23.00;62.10
53748;DHT22;39655;53.210;5.768;2023-05-07T12:04:42;23.10;61.10
53748;DHT22;39655;53.210;5.768;2023-05-07T12:07:14;23.30;61.10
53748;DHT22;39655;53.210;5.768;2023-05-07T12:09:41;23.50;60.30
53748;DHT22;39655;53.210;5.768;2023-05-07T12:12:07;23.50;59.60
53748;DHT22;39655;53.210;5.768;2023-05-07T12:14:40;23.80;59.60
53748;DHT22;39655;53.210;5.768;2023-05-07T12:17:08;24.10;59.20
53748;DHT22;39655;53.210;5.768;2023-05-07T12:19:37;24.50;58.20
53748;DHT22;39655;53.210;5.768;2023-05-07T12:22:04;24.60;56.50
53748;DHT22;39655;53.210;5.768;2023-05-07T12:24:45;25.10;56.90
53748;DHT22;39655;53.210;5.768;2023-05-07T12:27:11;25.30;55.80
53748;DHT22;39655;53.210;5.768;2023-05-07T12:29:38;25.10;55.70
53748;DHT22;39655;53.210;5.768;2023-05-07T12:32:06;24.90;56.20
53748;DHT22;39655;53.210;5.768;2023-05-07T12:34:32;25.10;55.20
53748;DHT22;39655;53.210;5.768;2023-05-07T12:37:01;25.60;53.40
53748;DHT22;39655;53.210;5.768;2023-05-07T12:39:28;25.60;52.30
53748;DHT22;39655;53.210;5.768;2023-05-07T12:41:54;25.60;53.60
53748;DHT22;39655;53.210;5.768;2023-05-07T12:44:23;25.70;53.90
53748;DHT22;39655;53.210;5.768;2023-05-07T12:46:50;25.90;53.60
53748;DHT22;39655;53.210;5.768;2023-05-07T12:49:16;25.80;52.20
53748;DHT22;39655;53.210;5.768;2023-05-07T12:51:43;25.90;54.00
53748;DHT22;39655;53.210;5.768;2023-05-07T12:54:09;26.10;51.90
53748;DHT22;39655;53.210;5.768;2023-05-07T12:56:38;26.30;51.70
53748;DHT22;39655;53.210;5.768;2023-05-07T12:59:03;26.70;51.40
53748;DHT22;39655;53.210;5.768;2023-05-07T13:01:30;26.80;51.00
53748;DHT22;39655;53.210;5.768;2023-05-07T13:04:03;27.10;50.60
53748;DHT22;39655;53.210;5.768;2023-05-07T13:06:30;27.20;49.20
53748;DHT22;39655;53.210;5.768;2023-05-07T13:08:56;27.10;49.30
53748;DHT22;39655;53.210;5.768;2023-05-07T13:11:22;26.80;51.50
53748;DHT22;39655;53.210;5.768;2023-05-07T13:13:48;26.50;51.00
53748;DHT22;39655;53.210;5.768;2023-05-07T13:16:14;26.80;49.70
53748;DHT22;39655;53.210;5.768;2023-05-07T13:18:40;27.20;50.40
53748;DHT22;39655;53.210;5.768;2023-05-07T13:21:08;27.30;49.80
53748;DHT22;39655;53.210;5.768;2023-05-07T13:23:35;27.90;49.30
53748;DHT22;39655;53.210;5.768;2023-05-07T13:26:01;28.10;46.50
53748;DHT22;39655;53.210;5.768;2023-05-07T13:28:26;28.30;45.00
53748;DHT22;39655;53.210;5.768;2023-05-07T13:30:52;28.60;45.90
53748;DHT22;39655;53.210;5.768;2023-05-07T13:33:18;28.50;46.30
53748;DHT22;39655;53.210;5.768;2023-05-07T13:35:44;28.60;44.60
53748;DHT22;39655;53.210;5.768;2023-05-07T13:38:10;29.20;44.00
53748;DHT22;39655;53.210;5.768;2023-05-07T13:40:36;29.60;44.60
53748;DHT22;39655;53.210;5.768;2023-05-07T13:43:01;30.00;42.60
53748;DHT22;39655;53.210;5.768;2023-05-07T13:45:28;29.70;42.10
53748;DHT22;39655;53.210;5.768;2023-05-07T13:47:55;29.20;44.10
53748;DHT22;39655;53.210;5.768;2023-05-07T13:50:21;28.10;45.00
53748;DHT22;39655;53.210;5.768;2023-05-07T13:52:47;27.10;46.70
53748;DHT22;39655;53.210;5.768;2023-05-07T13:55:19;26.70;48.10
53748;DHT22;39655;53.210;5.768;2023-05-07T13:57:46;26.80;47.60
53748;DHT22;39655;53.210;5.768;2023-05-07T14:00:12;28.00;47.20
53748;DHT22;39655;53.210;5.768;2023-05-07T14:02:38;28.80;45.10
53748;DHT22;39655;53.210;5.768;2023-05-07T14:05:04;28.20;44.90
53748;DHT22;39655;53.210;5.768;2023-05-07T14:07:30;27.60;47.30
53748;DHT22;39655;53.210;5.768;2023-05-07T14:09:56;27.00;49.00
53748;DHT22;39655;53.210;5.768;2023-05-07T14:12:22;26.90;49.80
53748;DHT22;39655;53.210;5.768;2023-05-07T14:14:48;26.70;49.30
53748;DHT22;39655;53.210;5.768;2023-05-07T14:17:16;27.00;47.50
53748;DHT22;39655;53.210;5.768;2023-05-07T14:19:42;27.50;49.40
53748;DHT22;39655;53.210;5.768;2023-05-07T14:22:08;28.10;46.40
53748;DHT22;39655;53.210;5.768;2023-05-07T14:24:33;28.10;47.00
53748;DHT22;39655;53.210;5.768;2023-05-07T14:26:59;27.60;46.10
53748;DHT22;39655;53.210;5.768;2023-05-07T14:29:25;26.70;48.30
53748;DHT22;39655;53.210;5.768;2023-05-07T14:31:51;26.10;50.00
53748;DHT22;39655;53.210;5.768;2023-05-07T14:34:16;25.80;52.20
53748;DHT22;39655;53.210;5.768;2023-05-07T14:36:42;25.40;52.20
53748;DHT22;39655;53.210;5.768;2023-05-07T14:39:09;25.30;52.20
53748;DHT22;39655;53.210;5.768;2023-05-07T14:41:35;25.00;52.80
53748;DHT22;39655;53.210;5.768;2023-05-07T14:44:00;24.60;53.60
53748;DHT22;39655;53.210;5.768;2023-05-07T14:46:27;24.30;54.00
53748;DHT22;39655;53.210;5.768;2023-05-07T14:48:53;24.10;55.50
53748;DHT22;39655;53.210;5.768;2023-05-07T14:51:18;24.10;55.60
53748;DHT22;39655;53.210;5.768;2023-05-07T14:53:44;23.80;56.00
53748;DHT22;39655;53.210;5.768;2023-05-07T14:56:10;23.80;57.30
53748;DHT22;39655;53.210;5.768;2023-05-07T14:58:35;23.70;56.80
53748;DHT22;39655;53.210;5.768;2023-05-07T15:01:02;23.60;57.00
53748;DHT22;39655;53.210;5.768;2023-05-07T15:03:28;23.70;56.50
53748;DHT22;39655;53.210;5.768;2023-05-07T15:05:55;23.60;55.80
53748;DHT22;39655;53.210;5.768;2023-05-07T15:08:20;23.60;57.40
53748;DHT22;39655;53.210;5.768;2023-05-07T15:10:46;23.80;57.20
53748;DHT22;39655;53.210;5.768;2023-05-07T15:13:12;23.90;56.80
53748;DHT22;39655;53.210;5.768;2023-05-07T15:15:41;24.00;55.50
53748;DHT22;39655;53.210;5.768;2023-05-07T15:18:08;24.00;56.20
53748;DHT22;39655;53.210;5.768;2023-05-07T15:20:33;24.00;55.20
53748;DHT22;39655;53.210;5.768;2023-05-07T15:22:59;23.90;56.00
53748;DHT22;39655;53.210;5.768;2023-05-07T15:25:25;23.90;55.20
53748;DHT22;39655;53.210;5.768;2023-05-07T15:27:51;24.10;54.90
53748;DHT22;39655;53.210;5.768;2023-05-07T15:30:16;24.00;56.10
53748;DHT22;39655;53.210;5.768;2023-05-07T15:32:42;23.90;56.70
53748;DHT22;39655;53.210;5.768;2023-05-07T15:35:09;23.90;55.50
53748;DHT22;39655;53.210;5.768;2023-05-07T15:37:35;23.70;57.10
53748;DHT22;39655;53.210;5.768;2023-05-07T15:40:00;23.30;57.30
53748;DHT22;39655;53.210;5.768;2023-05-07T15:42:28;23.30;57.50
53748;DHT22;39655;53.210;5.768;2023-05-07T15:44:53;23.10;57.40
53748;DHT22;39655;53.210;5.768;2023-05-07T15:47:19;23.10;58.10
53748;DHT22;39655;53.210;5.768;2023-05-07T15:49:45;22.90;59.60
53748;DHT22;39655;53.210;5.768;2023-05-07T15:52:11;22.80;59.20
53748;DHT22;39655;53.210;5.768;2023-05-07T15:54:39;22.70;59.00
53748;DHT22;39655;53.210;5.768;2023-05-07T15:57:05;22.60;59.80
53748;DHT22;39655;53.210;5.768;2023-05-07T15:59:35;22.50;60.50
53748;DHT22;39655;53.210;5.768;2023-05-07T16:02:01;22.30;61.20
53748;DHT22;39655;53.210;5.768;2023-05-07T16:04:27;22.30;61.20
53748;DHT22;39655;53.210;5.768;2023-05-07T16:06:53;22.40;60.70
53748;DHT22;39655;53.210;5.768;2023-05-07T16:09:18;22.10;61.60
53748;DHT22;39655;53.210;5.768;2023-05-07T16:11:44;22.10;61.90
53748;DHT22;39655;53.210;5.768;2023-05-07T16:14:10;22.10;61.70
53748;DHT22;39655;53.210;5.768;2023-05-07T16:16:36;22.00;61.80
53748;DHT22;39655;53.210;5.768;2023-05-07T16:19:02;21.90;62.00
53748;DHT22;39655;53.210;5.768;2023-05-07T16:21:28;21.80;62.30
53748;DHT22;39655;53.210;5.768;2023-05-07T16:23:55;21.80;62.20
53748;DHT22;39655;53.210;5.768;2023-05-07T16:26:21;21.80;62.50
53748;DHT22;39655;53.210;5.768;2023-05-07T16:28:47;21.70;62.90
53748;DHT22;39655;53.210;5.768;2023-05-07T16:31:13;21.70;62.90
53748;DHT22;39655;53.210;5.768;2023-05-07T16:33:38;21.50;63.60
53748;DHT22;39655;53.210;5.768;2023-05-07T16:36:04;21.50;63.50
53748;DHT22;39655;53.210;5.768;2023-05-07T16:38:30;21.60;63.30
53748;DHT22;39655;53.210;5.768;2023-05-07T16:40:58;21.60;63.00
53748;DHT22;39655;53.210;5.768;2023-05-07T16:43:24;21.50;64.00
53748;DHT22;39655;53.210;5.768;2023-05-07T16:45:50;21.50;65.10
53748;DHT22;39655;53.210;5.768;2023-05-07T16:48:19;21.50;64.70
53748;DHT22;39655;53.210;5.768;2023-05-07T16:50:45;21.60;64.00
53748;DHT22;39655;53.210;5.768;2023-05-07T16:53:10;21.60;63.80
53748;DHT22;39655;53.210;5.768;2023-05-07T16:55:36;21.50;65.00
53748;DHT22;39655;53.210;5.768;2023-05-07T16:58:10;21.50;64.80
53748;DHT22;39655;53.210;5.768;2023-05-07T17:00:36;21.40;64.60
53748;DHT22;39655;53.210;5.768;2023-05-07T17:03:02;21.30;65.00
53748;DHT22;39655;53.210;5.768;2023-05-07T17:05:29;21.20;64.90
53748;DHT22;39655;53.210;5.768;2023-05-07T17:07:55;21.10;65.10
53748;DHT22;39655;53.210;5.768;2023-05-07T17:10:22;21.10;65.60
53748;DHT22;39655;53.210;5.768;2023-05-07T17:12:48;21.00;65.40
53748;DHT22;39655;53.210;5.768;2023-05-07T17:15:14;21.10;65.20
53748;DHT22;39655;53.210;5.768;2023-05-07T17:17:39;21.00;65.80
53748;DHT22;39655;53.210;5.768;2023-05-07T17:20:07;21.00;65.50
53748;DHT22;39655;53.210;5.768;2023-05-07T17:22:32;20.90;65.40
53748;DHT22;39655;53.210;5.768;2023-05-07T17:25:02;20.90;65.80
53748;DHT22;39655;53.210;5.768;2023-05-07T17:27:29;20.80;65.90
53748;DHT22;39655;53.210;5.768;2023-05-07T17:29:56;20.80;65.40
53748;DHT22;39655;53.210;5.768;2023-05-07T17:32:21;20.60;66.00
53748;DHT22;39655;53.210;5.768;2023-05-07T17:34:47;20.50;66.40
53748;DHT22;39655;53.210;5.768;2023-05-07T17:37:13;20.40;66.80
53748;DHT22;39655;53.210;5.768;2023-05-07T17:39:39;20.40;66.90
53748;DHT22;39655;53.210;5.768;2023-05-07T17:42:04;20.30;66.90
53748;DHT22;39655;53.210;5.768;2023-05-07T17:44:30;20.20;67.50
53748;DHT22;39655;53.210;5.768;2023-05-07T17:46:56;20.10;67.70
53748;DHT22;39655;53.210;5.768;2023-05-07T17:49:21;20.10;67.20
53748;DHT22;39655;53.210;5.768;2023-05-07T17:51:47;20.10;67.50
53748;DHT22;39655;53.210;5.768;2023-05-07T17:54:13;19.90;67.80
53748;DHT22;39655;53.210;5.768;2023-05-07T17:56:39;19.80;68.30
53748;DHT22;39655;53.210;5.768;2023-05-07T17:59:05;19.80;68.30
53748;DHT22;39655;53.210;5.768;2023-05-07T18:01:30;19.80;68.20
53748;DHT22;39655;53.210;5.768;2023-05-07T18:03:58;19.60;68.60
53748;DHT22;39655;53.210;5.768;2023-05-07T18:06:24;19.50;68.60
53748;DHT22;39655;53.210;5.768;2023-05-07T18:08:50;19.50;69.10
53748;DHT22;39655;53.210;5.768;2023-05-07T18:11:16;19.50;68.80
53748;DHT22;39655;53.210;5.768;2023-05-07T18:13:41;19.40;69.20
53748;DHT22;39655;53.210;5.768;2023-05-07T18:16:08;19.40;69.20
53748;DHT22;39655;53.210;5.768;2023-05-07T18:18:34;19.40;69.20
53748;DHT22;39655;53.210;5.768;2023-05-07T18:21:00;19.30;69.40
53748;DHT22;39655;53.210;5.768;2023-05-07T18:23:26;19.30;69.60
53748;DHT22;39655;53.210;5.768;2023-05-07T18:25:52;19.20;70.10
53748;DHT22;39655;53.210;5.768;2023-05-07T18:28:18;19.10;70.40
53748;DHT22;39655;53.210;5.768;2023-05-07T18:30:44;19.10;70.40
53748;DHT22;39655;53.210;5.768;2023-05-07T18:33:10;19.00;70.50
53748;DHT22;39655;53.210;5.768;2023-05-07T18:35:35;19.00;70.40
53748;DHT22;39655;53.210;5.768;2023-05-07T18:38:01;18.90;70.40
53748;DHT22;39655;53.210;5.768;2023-05-07T18:40:27;18.90;70.40
53748;DHT22;39655;53.210;5.768;2023-05-07T18:42:53;18.80;70.80
53748;DHT22;39655;53.210;5.768;2023-05-07T18:45:18;18.70;71.10
53748;DHT22;39655;53.210;5.768;2023-05-07T18:47:45;18.60;71.10
53748;DHT22;39655;53.210;5.768;2023-05-07T18:50:12;18.60;71.40
53748;DHT22;39655;53.210;5.768;2023-05-07T18:52:38;18.60;71.20
53748;DHT22;39655;53.210;5.768;2023-05-07T18:55:05;18.60;71.50
53748;DHT22;39655;53.210;5.768;2023-05-07T18:57:32;18.60;71.40
53748;DHT22;39655;53.210;5.768;2023-05-07T18:59:57;18.50;71.70
53748;DHT22;39655;53.210;5.768;2023-05-07T19:02:23;18.50;71.80
53748;DHT22;39655;53.210;5.768;2023-05-07T19:04:49;18.50;71.80
53748;DHT22;39655;53.210;5.768;2023-05-07T19:07:15;18.40;72.00
53748;DHT22;39655;53.210;5.768;2023-05-07T19:09:40;18.30;71.90
53748;DHT22;39655;53.210;5.768;2023-05-07T19:12:06;18.20;72.30
53748;DHT22;39655;53.210;5.768;2023-05-07T19:14:32;18.10;72.40
53748;DHT22;39655;53.210;5.768;2023-05-07T19:16:58;18.10;72.50
53748;DHT22;39655;53.210;5.768;2023-05-07T19:19:25;18.00;72.80
53748;DHT22;39655;53.210;5.768;2023-05-07T19:21:51;17.90;73.20
53748;DHT22;39655;53.210;5.768;2023-05-07T19:24:17;17.90;73.40
53748;DHT22;39655;53.210;5.768;2023-05-07T19:26:43;17.90;73.40
53748;DHT22;39655;53.210;5.768;2023-05-07T19:29:09;17.90;73.30
53748;DHT22;39655;53.210;5.768;2023-05-07T19:31:35;17.80;73.60
53748;DHT22;39655;53.210;5.768;2023-05-07T19:34:01;17.70;74.40
53748;DHT22;39655;53.210;5.768;2023-05-07T19:36:27;17.70;73.70
53748;DHT22;39655;53.210;5.768;2023-05-07T19:38:52;17.70;73.90
53748;DHT22;39655;53.210;5.768;2023-05-07T19:41:19;17.60;74.40
53748;DHT22;39655;53.210;5.768;2023-05-07T19:43:46;17.60;74.70
53748;DHT22;39655;53.210;5.768;2023-05-07T19:46:12;17.50;75.10
53748;DHT22;39655;53.210;5.768;2023-05-07T19:48:38;17.50;75.00
53748;DHT22;39655;53.210;5.768;2023-05-07T19:51:03;17.40;75.00
53748;DHT22;39655;53.210;5.768;2023-05-07T19:53:29;17.40;75.10
53748;DHT22;39655;53.210;5.768;2023-05-07T19:56:06;17.30;75.50
53748;DHT22;39655;53.210;5.768;2023-05-07T19:58:33;17.20;75.40
53748;DHT22;39655;53.210;5.768;2023-05-07T20:00:58;17.20;75.30
53748;DHT22;39655;53.210;5.768;2023-05-07T20:03:27;17.10;75.80
53748;DHT22;39655;53.210;5.768;2023-05-07T20:05:52;17.20;75.40
53748;DHT22;39655;53.210;5.768;2023-05-07T20:08:18;17.10;76.20
53748;DHT22;39655;53.210;5.768;2023-05-07T20:10:44;17.00;76.30
53748;DHT22;39655;53.210;5.768;2023-05-07T20:13:10;16.90;76.40
53748;DHT22;39655;53.210;5.768;2023-05-07T20:15:37;16.80;76.80
53748;DHT22;39655;53.210;5.768;2023-05-07T20:18:03;16.80;76.80
53748;DHT22;39655;53.210;5.768;2023-05-07T20:20:29;16.80;77.00
53748;DHT22;39655;53.210;5.768;2023-05-07T20:22:54;16.80;76.70
53748;DHT22;39655;53.210;5.768;2023-05-07T20:25:20;16.60;77.10
53748;DHT22;39655;53.210;5.768;2023-05-07T20:27:46;16.60;77.20
53748;DHT22;39655;53.210;5.768;2023-05-07T20:30:12;16.40;77.60
53748;DHT22;39655;53.210;5.768;2023-05-07T20:32:38;16.40;77.70
53748;DHT22;39655;53.210;5.768;2023-05-07T20:35:04;16.30;77.60
53748;DHT22;39655;53.210;5.768;2023-05-07T20:37:33;16.20;77.80
53748;DHT22;39655;53.210;5.768;2023-05-07T20:40:02;16.20;78.20
53748;DHT22;39655;53.210;5.768;2023-05-07T20:42:28;16.10;78.30
53748;DHT22;39655;53.210;5.768;2023-05-07T20:44:54;16.10;78.30
53748;DHT22;39655;53.210;5.768;2023-05-07T20:47:20;16.00;78.50
53748;DHT22;39655;53.210;5.768;2023-05-07T20:49:53;16.00;78.20
53748;DHT22;39655;53.210;5.768;2023-05-07T20:52:19;15.90;78.30
53748;DHT22;39655;53.210;5.768;2023-05-07T20:54:45;15.80;79.00
53748;DHT22;39655;53.210;5.768;2023-05-07T20:57:15;15.80;79.10
53748;DHT22;39655;53.210;5.768;2023-05-07T20:59:41;15.70;79.10
53748;DHT22;39655;53.210;5.768;2023-05-07T21:02:07;15.70;79.30
53748;DHT22;39655;53.210;5.768;2023-05-07T21:04:33;15.60;79.30
53748;DHT22;39655;53.210;5.768;2023-05-07T21:06:59;15.60;79.30
53748;DHT22;39655;53.210;5.768;2023-05-07T21:09:25;15.50;79.50
53748;DHT22;39655;53.210;5.768;2023-05-07T21:11:51;15.50;79.20
53748;DHT22;39655;53.210;5.768;2023-05-07T21:14:17;15.50;79.60
53748;DHT22;39655;53.210;5.768;2023-05-07T21:16:43;15.50;79.80
53748;DHT22;39655;53.210;5.768;2023-05-07T21:19:09;15.40;79.80
53748;DHT22;39655;53.210;5.768;2023-05-07T21:21:35;15.40;80.20
53748;DHT22;39655;53.210;5.768;2023-05-07T21:24:01;15.40;80.30
53748;DHT22;39655;53.210;5.768;2023-05-07T21:26:27;15.40;80.00
53748;DHT22;39655;53.210;5.768;2023-05-07T21:28:53;15.40;79.70
53748;DHT22;39655;53.210;5.768;2023-05-07T21:31:19;15.50;79.30
53748;DHT22;39655;53.210;5.768;2023-05-07T21:33:45;15.40;79.60
53748;DHT22;39655;53.210;5.768;2023-05-07T21:36:17;15.40;79.90
53748;DHT22;39655;53.210;5.768;2023-05-07T21:38:46;15.40;79.30
53748;DHT22;39655;53.210;5.768;2023-05-07T21:41:12;15.30;79.40
53748;DHT22;39655;53.210;5.768;2023-05-07T21:43:37;15.30;79.40
53748;DHT22;39655;53.210;5.768;2023-05-07T21:46:07;15.20;80.00
53748;DHT22;39655;53.210;5.768;2023-05-07T21:48:33;15.20;79.90
53748;DHT22;39655;53.210;5.768;2023-05-07T21:51:04;15.20;80.00
53748;DHT22;39655;53.210;5.768;2023-05-07T21:53:30;15.20;79.90
53748;DHT22;39655;53.210;5.768;2023-05-07T21:55:55;15.20;79.90
53748;DHT22;39655;53.210;5.768;2023-05-07T21:58:21;15.20;80.00
53748;DHT22;39655;53.210;5.768;2023-05-07T22:00:47;15.20;80.10
53748;DHT22;39655;53.210;5.768;2023-05-07T22:03:13;15.20;80.00
53748;DHT22;39655;53.210;5.768;2023-05-07T22:05:38;15.10;80.30
53748;DHT22;39655;53.210;5.768;2023-05-07T22:08:04;15.10;80.10
53748;DHT22;39655;53.210;5.768;2023-05-07T22:10:30;15.10;79.70